»·PEaware :: SWA1052 KLAS-KPHX

SWA1052 :: KLAS-KPHX

FLIGHT INFORMATION

Flight Status: Arrived
Operator:
Southwest Airlines
More flights by this operator :: More flights under this callsign
Pilot: Cody B. (17747)
Aircraft: BOEING 737-800
(B738)
More flights by this aircraft type
Origin: KLAS McCarran Intl
United States
Destination: KPHX Phoenix Sky Harbor Intl
United States
More flights between these airports :: More routes between these airports
Route: PRFUM4 PRFUM WOTRO BRUSR1
File this flight plan on PilotEdge
Remarks: PBN / A1B1C1D1S1S2 DOF / 180809 REG / N8301J EET / KZAB0022 CODE / AB5ADE OPR / SWA PER / C RMK / TCAS SIMBRIEF
Altitude:
(Current/Filed)
35,000ft
Speed:
(Current/Filed)
461kts
Departed: 09-Aug-18 08:31 AM
Arrived: 09-Aug-18 09:19 AM
Distance/Time
Traveled:
222nm/0:48
Distance/Time
To Go:
Arrived

Flight Plot

Page will automatically refresh every two minutes.

Flight plan parsing failed; only flown route is shown


Map Options




Map Legend


Flown Route
Filed Route
Departure Airport
Arrival Airport
Navaid (VOR, NDB)
Fix

Horizontal Profiles

Position Reports

Time Latitude Longitude Heading Altitude Ground
Speed
09-Aug-18 07:05 36.079935 -115.147123 61 2101ft 0kts
09-Aug-18 07:06 36.079935 -115.147123 61 2101ft 0kts
09-Aug-18 07:07 36.079935 -115.147123 61 2101ft 0kts
09-Aug-18 07:08 36.079935 -115.147123 61 2101ft 0kts
09-Aug-18 07:09 36.079935 -115.147123 61 2101ft 0kts
09-Aug-18 07:10 36.079935 -115.147123 61 2101ft 0kts
09-Aug-18 07:11 36.079935 -115.147123 61 2101ft 0kts
09-Aug-18 07:12 36.079935 -115.147123 61 2101ft 0kts
09-Aug-18 07:13 36.079935 -115.147123 61 2101ft 0kts
09-Aug-18 07:14 36.079935 -115.147123 61 2101ft 0kts
09-Aug-18 07:15 36.079935 -115.147123 61 2101ft 0kts
09-Aug-18 07:16 36.079935 -115.147123 61 2101ft 0kts
09-Aug-18 07:17 36.079935 -115.147123 61 2101ft 0kts
09-Aug-18 07:18 36.079935 -115.147123 61 2101ft 0kts
09-Aug-18 07:19 36.079935 -115.147123 61 2101ft 0kts
09-Aug-18 07:20 36.079935 -115.147123 61 2101ft 0kts
09-Aug-18 07:21 36.079935 -115.147123 61 2101ft 0kts
09-Aug-18 07:22 36.079935 -115.147123 61 2101ft 0kts
09-Aug-18 07:23 36.079935 -115.147123 61 2101ft 0kts
09-Aug-18 07:24 36.079935 -115.147123 61 2101ft 0kts
09-Aug-18 07:25 36.079935 -115.147123 61 2101ft 0kts
09-Aug-18 07:26 36.079935 -115.147123 61 2101ft 0kts
09-Aug-18 07:27 36.079935 -115.147123 61 2101ft 0kts
09-Aug-18 07:28 36.079935 -115.147123 61 2101ft 0kts
09-Aug-18 07:29 36.079935 -115.147123 61 2101ft 0kts
09-Aug-18 07:30 36.079935 -115.147123 61 2101ft 0kts
09-Aug-18 07:31 36.079935 -115.147123 61 2101ft 0kts
09-Aug-18 07:32 36.079935 -115.147123 61 2101ft 0kts
09-Aug-18 07:33 36.079935 -115.147123 61 2101ft 0kts
09-Aug-18 07:34 36.079935 -115.147123 61 2101ft 0kts
09-Aug-18 07:35 36.079935 -115.147123 61 2101ft 0kts
09-Aug-18 07:36 36.079935 -115.147123 61 2101ft 0kts
09-Aug-18 07:37 36.079935 -115.147123 61 2101ft 0kts
09-Aug-18 07:38 36.079935 -115.147123 61 2101ft 0kts
09-Aug-18 07:39 36.079935 -115.147123 61 2101ft 0kts
09-Aug-18 07:40 36.079935 -115.147123 61 2101ft 0kts
09-Aug-18 07:41 36.079935 -115.147123 61 2101ft 0kts
09-Aug-18 07:42 36.079851 -115.147416 77 2101ft 1kts
09-Aug-18 07:43 36.080077 -115.147915 157 2104ft 1kts
09-Aug-18 07:44 36.080094 -115.147924 156 2104ft 0kts
09-Aug-18 07:45 36.080094 -115.147924 156 2104ft 0kts
09-Aug-18 07:46 36.080027 -115.147887 156 2104ft 0kts
09-Aug-18 07:47 36.079969 -115.147855 155 2104ft 0kts
09-Aug-18 07:48 36.079794 -115.147758 155 2104ft 1kts
09-Aug-18 07:49 36.079361 -115.147519 156 2104ft 0kts
09-Aug-18 07:50 36.078514 -115.146754 108 2103ft 9kts
09-Aug-18 07:51 36.078428 -115.145809 94 2100ft 1kts
09-Aug-18 07:52 36.078423 -115.145741 94 2100ft 0kts
09-Aug-18 07:53 36.078423 -115.145741 94 2100ft 0kts
09-Aug-18 07:55 36.079935 -115.147123 61 2189ft 0kts
09-Aug-18 07:56 36.079935 -115.147123 61 2189ft 0kts
09-Aug-18 07:57 36.079935 -115.147123 61 2189ft 0kts
09-Aug-18 07:58 36.079935 -115.147123 61 2189ft 0kts
09-Aug-18 07:59 36.079935 -115.147123 61 2189ft 0kts
09-Aug-18 08:00 36.079935 -115.147123 61 2189ft 0kts
09-Aug-18 08:01 36.079935 -115.147123 61 2189ft 0kts
09-Aug-18 08:02 36.079935 -115.147123 61 2189ft 0kts
09-Aug-18 08:03 36.079935 -115.147123 61 2189ft 0kts
09-Aug-18 08:04 36.079935 -115.147123 61 2189ft 0kts
09-Aug-18 08:05 36.079935 -115.147123 61 2189ft 0kts
09-Aug-18 08:06 36.079935 -115.147123 61 2189ft 0kts
09-Aug-18 08:07 36.079935 -115.147123 61 2189ft 0kts
09-Aug-18 08:08 36.079935 -115.147123 61 2189ft 0kts
09-Aug-18 08:09 36.079935 -115.147123 61 2189ft 0kts
09-Aug-18 08:10 36.079935 -115.147123 61 2189ft 0kts
09-Aug-18 08:11 36.079935 -115.147123 61 2189ft 0kts
09-Aug-18 08:12 36.079935 -115.147123 61 2189ft 0kts
09-Aug-18 08:13 36.079935 -115.147123 61 2189ft 0kts
09-Aug-18 08:14 36.079935 -115.147123 61 2189ft 0kts
09-Aug-18 08:15 36.079935 -115.147123 61 2189ft 0kts
09-Aug-18 08:16 36.079928 -115.147138 60 2189ft 1kts
09-Aug-18 08:17 36.079934 -115.147797 133 2189ft 2kts
09-Aug-18 08:18 36.080095 -115.147923 156 2189ft 0kts
09-Aug-18 08:19 36.080095 -115.147923 156 2189ft 0kts
09-Aug-18 08:20 36.080095 -115.147923 156 2189ft 0kts
09-Aug-18 08:21 36.079429 -115.147569 155 2189ft 5kts
09-Aug-18 08:22 36.078816 -115.147221 151 2189ft 4kts
09-Aug-18 08:23 36.078409 -115.145473 95 2189ft 7kts
09-Aug-18 08:24 36.078274 -115.142375 89 2189ft 11kts
09-Aug-18 08:25 36.078287 -115.137610 89 2189ft 16kts
09-Aug-18 08:26 36.078287 -115.131507 89 2189ft 17kts
09-Aug-18 08:27 36.078291 -115.125196 90 2189ft 18kts
09-Aug-18 08:28 36.077635 -115.121690 128 2189ft 7kts
09-Aug-18 08:29 36.077331 -115.121325 166 2189ft 0kts
09-Aug-18 08:30 36.076936 -115.121262 176 2189ft 5kts
09-Aug-18 08:31 36.076436 -115.123188 270 2189ft 17kts
09-Aug-18 08:32 36.076147 -115.159766 267 2806ft 158kts
09-Aug-18 08:33 36.076805 -115.213172 272 4977ft 169kts
09-Aug-18 08:34 36.056519 -115.268345 201 6405ft 239kts
09-Aug-18 08:35 35.986777 -115.294494 197 8775ft 274kts
09-Aug-18 08:36 35.908137 -115.279269 161 10617ft 317kts
09-Aug-18 08:37 35.851713 -115.203335 107 13375ft 320kts
09-Aug-18 08:38 35.826093 -115.096875 106 16076ft 331kts
09-Aug-18 08:39 35.826668 -114.982230 85 18482ft 347kts
09-Aug-18 08:40 35.836306 -114.862502 85 20807ft 357kts
09-Aug-18 08:41 35.845626 -114.739246 84 22860ft 368kts
09-Aug-18 08:42 35.850832 -114.611888 99 24647ft 382kts
09-Aug-18 08:43 35.802242 -114.494083 121 26315ft 396kts
09-Aug-18 08:44 35.748352 -114.393079 121 27665ft 405kts
09-Aug-18 08:45 35.685872 -114.276040 122 29010ft 417kts
09-Aug-18 08:46 35.621891 -114.156474 122 30631ft 418kts
09-Aug-18 08:47 35.558196 -114.037794 122 32251ft 415kts
09-Aug-18 08:48 35.495010 -113.920412 122 33706ft 413kts
09-Aug-18 08:49 35.432033 -113.803828 122 35022ft 411kts
09-Aug-18 08:50 35.367268 -113.684295 122 35208ft 435kts
09-Aug-18 08:51 35.298426 -113.557659 122 35207ft 454kts
09-Aug-18 08:52 35.228613 -113.429720 122 35207ft 453kts
09-Aug-18 08:53 35.158866 -113.302294 123 35201ft 455kts
09-Aug-18 08:54 35.088308 -113.173112 123 35200ft 459kts
09-Aug-18 08:55 35.017824 -113.045243 123 35282ft 455kts
09-Aug-18 08:56 34.946444 -112.916478 123 34093ft 457kts
09-Aug-18 08:57 34.876201 -112.790092 124 32137ft 458kts
09-Aug-18 08:58 34.804517 -112.661909 124 30188ft 465kts
09-Aug-18 08:59 34.731638 -112.531839 123 28208ft 471kts
09-Aug-18 09:00 34.640342 -112.417055 140 26255ft 479kts
09-Aug-18 09:01 34.537477 -112.317767 140 24293ft 472kts
09-Aug-18 09:02 34.432565 -112.227287 158 21898ft 449kts
09-Aug-18 09:03 34.321011 -112.196415 166 19231ft 370kts
09-Aug-18 09:04 34.223122 -112.171617 165 16127ft 345kts
09-Aug-18 09:05 34.131804 -112.148288 165 14294ft 309kts
09-Aug-18 09:06 34.045726 -112.139324 184 12830ft 316kts
09-Aug-18 09:07 33.961320 -112.149749 185 11473ft 291kts
09-Aug-18 09:08 33.883651 -112.160620 190 10534ft 282kts
09-Aug-18 09:09 33.808123 -112.177160 191 9381ft 274kts
09-Aug-18 09:10 33.733398 -112.193286 190 8253ft 271kts
09-Aug-18 09:11 33.665352 -112.207812 190 7140ft 241kts
09-Aug-18 09:12 33.598367 -112.222055 189 6148ft 235kts
09-Aug-18 09:13 33.534873 -112.235737 190 5303ft 229kts
09-Aug-18 09:14 33.478924 -112.247848 189 4758ft 187kts
09-Aug-18 09:15 33.430353 -112.243819 149 4365ft 163kts
09-Aug-18 09:16 33.427248 -112.196864 85 3936ft 149kts
09-Aug-18 09:17 33.428721 -112.147179 87 3143ft 148kts
09-Aug-18 09:18 33.428859 -112.098322 88 2339ft 145kts
09-Aug-18 09:19 33.428721 -112.050022 85 1607ft 147kts
09-Aug-18 09:20 33.428856 -112.009082 90 1142ft 38kts
09-Aug-18 09:21 33.429770 -112.004392 50 1142ft 7kts
09-Aug-18 09:22 33.430176 -112.003281 21 1142ft 12kts
09-Aug-18 09:23 33.431922 -112.002906 50 1142ft 6kts
09-Aug-18 09:24 33.431972 -112.002819 58 1142ft 0kts
09-Aug-18 09:25 33.432162 -112.001479 91 1142ft 12kts
09-Aug-18 09:26 33.432842 -111.999492 89 1142ft 8kts
09-Aug-18 09:27 33.432942 -111.995959 49 1142ft 1kts
09-Aug-18 09:28 33.433641 -111.995218 62 1142ft 2kts
09-Aug-18 09:29 33.433689 -111.994858 82 1142ft 0kts
09-Aug-18 09:30 33.433689 -111.994859 82 1142ft 0kts
09-Aug-18 09:31 33.433689 -111.994859 82 1142ft 0kts
09-Aug-18 09:32 33.433689 -111.994859 82 1142ft 0kts
09-Aug-18 09:33 33.433689 -111.994859 82 1142ft 0kts
09-Aug-18 09:34 33.433689 -111.994859 82 1142ft 0kts

Navigation Log

Ident Type
Flight plan parsing failed, navigation log unavailable